sensor_id;sensor_type;location;lat;lon;timestamp;P1;durP1;ratioP1;P2;durP2;ratioP2
11777;SDS011;5946;51.770;8.548;2022-12-18T00:00:43;35.87;;;18.00;;
11777;SDS011;5946;51.770;8.548;2022-12-18T00:03:09;33.60;;;17.80;;
11777;SDS011;5946;51.770;8.548;2022-12-18T00:05:35;32.07;;;16.37;;
11777;SDS011;5946;51.770;8.548;2022-12-18T00:08:02;31.17;;;15.97;;
11777;SDS011;5946;51.770;8.548;2022-12-18T00:10:28;23.87;;;13.87;;
11777;SDS011;5946;51.770;8.548;2022-12-18T00:12:54;24.23;;;13.30;;
11777;SDS011;5946;51.770;8.548;2022-12-18T00:15:20;25.33;;;13.80;;
11777;SDS011;5946;51.770;8.548;2022-12-18T00:17:46;20.90;;;12.60;;
11777;SDS011;5946;51.770;8.548;2022-12-18T00:20:12;20.83;;;11.93;;
11777;SDS011;5946;51.770;8.548;2022-12-18T00:22:41;20.37;;;11.67;;
11777;SDS011;5946;51.770;8.548;2022-12-18T00:25:07;19.37;;;11.27;;
11777;SDS011;5946;51.770;8.548;2022-12-18T00:27:33;18.90;;;11.30;;
11777;SDS011;5946;51.770;8.548;2022-12-18T00:29:59;18.70;;;11.40;;
11777;SDS011;5946;51.770;8.548;2022-12-18T00:32:25;20.87;;;12.13;;
11777;SDS011;5946;51.770;8.548;2022-12-18T00:34:51;21.27;;;12.20;;
11777;SDS011;5946;51.770;8.548;2022-12-18T00:37:17;21.03;;;12.67;;
11777;SDS011;5946;51.770;8.548;2022-12-18T00:39:42;19.33;;;11.43;;
11777;SDS011;5946;51.770;8.548;2022-12-18T00:42:09;21.27;;;11.83;;
11777;SDS011;5946;51.770;8.548;2022-12-18T00:44:54;21.77;;;12.20;;
11777;SDS011;5946;51.770;8.548;2022-12-18T00:47:20;21.13;;;11.47;;
11777;SDS011;5946;51.770;8.548;2022-12-18T00:49:46;20.53;;;11.13;;
11777;SDS011;5946;51.770;8.548;2022-12-18T00:52:12;25.03;;;11.87;;
11777;SDS011;5946;51.770;8.548;2022-12-18T00:54:38;21.03;;;11.57;;
11777;SDS011;5946;51.770;8.548;2022-12-18T00:57:04;21.87;;;11.90;;
11777;SDS011;5946;51.770;8.548;2022-12-18T00:59:30;25.90;;;13.23;;
11777;SDS011;5946;51.770;8.548;2022-12-18T01:01:56;21.90;;;11.03;;
11777;SDS011;5946;51.770;8.548;2022-12-18T01:04:22;21.23;;;12.37;;
11777;SDS011;5946;51.770;8.548;2022-12-18T01:06:48;20.90;;;11.20;;
11777;SDS011;5946;51.770;8.548;2022-12-18T01:09:14;23.00;;;11.53;;
11777;SDS011;5946;51.770;8.548;2022-12-18T01:11:40;17.83;;;10.30;;
11777;SDS011;5946;51.770;8.548;2022-12-18T01:14:06;19.13;;;10.70;;
11777;SDS011;5946;51.770;8.548;2022-12-18T01:16:32;17.80;;;10.07;;
11777;SDS011;5946;51.770;8.548;2022-12-18T01:18:58;17.03;;;10.77;;
11777;SDS011;5946;51.770;8.548;2022-12-18T01:21:24;18.77;;;10.63;;
11777;SDS011;5946;51.770;8.548;2022-12-18T01:23:51;16.17;;;9.80;;
11777;SDS011;5946;51.770;8.548;2022-12-18T01:26:17;18.67;;;10.30;;
11777;SDS011;5946;51.770;8.548;2022-12-18T01:28:43;20.03;;;11.10;;
11777;SDS011;5946;51.770;8.548;2022-12-18T01:31:10;20.23;;;10.73;;
11777;SDS011;5946;51.770;8.548;2022-12-18T01:33:36;19.90;;;10.87;;
11777;SDS011;5946;51.770;8.548;2022-12-18T01:36:02;15.57;;;9.20;;
11777;SDS011;5946;51.770;8.548;2022-12-18T01:38:28;18.73;;;10.47;;
11777;SDS011;5946;51.770;8.548;2022-12-18T01:40:58;14.33;;;9.23;;
11777;SDS011;5946;51.770;8.548;2022-12-18T01:43:40;16.57;;;8.73;;
11777;SDS011;5946;51.770;8.548;2022-12-18T01:46:06;15.83;;;9.20;;
11777;SDS011;5946;51.770;8.548;2022-12-18T01:48:32;17.67;;;9.43;;
11777;SDS011;5946;51.770;8.548;2022-12-18T01:50:58;16.53;;;8.87;;
11777;SDS011;5946;51.770;8.548;2022-12-18T01:53:25;17.60;;;8.43;;
11777;SDS011;5946;51.770;8.548;2022-12-18T01:55:52;13.57;;;8.03;;
11777;SDS011;5946;51.770;8.548;2022-12-18T01:58:20;15.10;;;8.60;;
11777;SDS011;5946;51.770;8.548;2022-12-18T02:00:47;15.33;;;8.97;;
11777;SDS011;5946;51.770;8.548;2022-12-18T02:03:13;17.43;;;8.77;;
11777;SDS011;5946;51.770;8.548;2022-12-18T02:05:44;14.70;;;8.80;;
11777;SDS011;5946;51.770;8.548;2022-12-18T02:10:45;14.63;;;8.70;;
11777;SDS011;5946;51.770;8.548;2022-12-18T02:15:40;14.10;;;8.03;;
11777;SDS011;5946;51.770;8.548;2022-12-18T02:18:14;13.00;;;8.13;;
11777;SDS011;5946;51.770;8.548;2022-12-18T02:28:28;12.53;;;7.40;;
11777;SDS011;5946;51.770;8.548;2022-12-18T02:30:56;15.40;;;8.43;;
11777;SDS011;5946;51.770;8.548;2022-12-18T02:33:24;13.60;;;7.17;;
11777;SDS011;5946;51.770;8.548;2022-12-18T02:35:51;14.30;;;8.17;;
11777;SDS011;5946;51.770;8.548;2022-12-18T02:38:18;16.97;;;8.20;;
11777;SDS011;5946;51.770;8.548;2022-12-18T02:40:44;14.30;;;7.83;;
11777;SDS011;5946;51.770;8.548;2022-12-18T02:43:11;13.07;;;7.53;;
11777;SDS011;5946;51.770;8.548;2022-12-18T02:45:52;13.23;;;7.40;;
11777;SDS011;5946;51.770;8.548;2022-12-18T02:48:19;15.13;;;8.30;;
11777;SDS011;5946;51.770;8.548;2022-12-18T02:50:51;14.03;;;7.77;;
11777;SDS011;5946;51.770;8.548;2022-12-18T02:58:26;13.17;;;7.50;;
11777;SDS011;5946;51.770;8.548;2022-12-18T03:03:38;12.13;;;7.37;;
11777;SDS011;5946;51.770;8.548;2022-12-18T03:06:07;11.50;;;6.37;;
11777;SDS011;5946;51.770;8.548;2022-12-18T03:08:36;11.63;;;7.00;;
11777;SDS011;5946;51.770;8.548;2022-12-18T03:11:05;14.20;;;7.13;;
11777;SDS011;5946;51.770;8.548;2022-12-18T03:13:33;14.10;;;7.97;;
11777;SDS011;5946;51.770;8.548;2022-12-18T03:16:00;14.27;;;8.07;;
11777;SDS011;5946;51.770;8.548;2022-12-18T03:18:33;14.87;;;7.97;;
11777;SDS011;5946;51.770;8.548;2022-12-18T03:21:02;12.20;;;7.67;;
11777;SDS011;5946;51.770;8.548;2022-12-18T03:23:31;13.47;;;7.83;;
11777;SDS011;5946;51.770;8.548;2022-12-18T03:25:58;15.00;;;7.70;;
11777;SDS011;5946;51.770;8.548;2022-12-18T03:28:25;14.80;;;7.50;;
11777;SDS011;5946;51.770;8.548;2022-12-18T03:30:54;13.20;;;7.07;;
11777;SDS011;5946;51.770;8.548;2022-12-18T03:34:04;11.03;;;6.67;;
11777;SDS011;5946;51.770;8.548;2022-12-18T03:36:11;10.43;;;6.57;;
11777;SDS011;5946;51.770;8.548;2022-12-18T03:38:37;15.20;;;7.70;;
11777;SDS011;5946;51.770;8.548;2022-12-18T03:41:26;13.10;;;7.13;;
11777;SDS011;5946;51.770;8.548;2022-12-18T03:49:23;16.53;;;7.33;;
11777;SDS011;5946;51.770;8.548;2022-12-18T03:51:59;11.30;;;6.40;;
11777;SDS011;5946;51.770;8.548;2022-12-18T03:54:26;10.63;;;6.17;;
11777;SDS011;5946;51.770;8.548;2022-12-18T03:56:56;12.30;;;6.90;;
11777;SDS011;5946;51.770;8.548;2022-12-18T03:59:23;11.40;;;6.73;;
11777;SDS011;5946;51.770;8.548;2022-12-18T04:01:50;11.97;;;6.83;;
11777;SDS011;5946;51.770;8.548;2022-12-18T04:04:17;14.13;;;7.43;;
11777;SDS011;5946;51.770;8.548;2022-12-18T04:06:45;11.70;;;7.43;;
11777;SDS011;5946;51.770;8.548;2022-12-18T04:09:12;12.80;;;7.60;;
11777;SDS011;5946;51.770;8.548;2022-12-18T04:11:38;13.53;;;7.90;;
11777;SDS011;5946;51.770;8.548;2022-12-18T04:14:05;13.67;;;7.27;;
11777;SDS011;5946;51.770;8.548;2022-12-18T04:16:31;12.60;;;7.87;;
11777;SDS011;5946;51.770;8.548;2022-12-18T04:18:57;15.87;;;8.40;;
11777;SDS011;5946;51.770;8.548;2022-12-18T04:21:23;14.47;;;8.33;;
11777;SDS011;5946;51.770;8.548;2022-12-18T04:23:49;13.43;;;8.00;;
11777;SDS011;5946;51.770;8.548;2022-12-18T04:26:15;15.20;;;8.00;;
11777;SDS011;5946;51.770;8.548;2022-12-18T04:28:41;15.37;;;7.60;;
11777;SDS011;5946;51.770;8.548;2022-12-18T04:31:07;15.40;;;7.50;;
11777;SDS011;5946;51.770;8.548;2022-12-18T04:33:33;15.40;;;7.90;;
11777;SDS011;5946;51.770;8.548;2022-12-18T04:35:59;14.60;;;8.20;;
11777;SDS011;5946;51.770;8.548;2022-12-18T04:38:25;14.33;;;8.47;;
11777;SDS011;5946;51.770;8.548;2022-12-18T04:40:51;14.53;;;8.37;;
11777;SDS011;5946;51.770;8.548;2022-12-18T04:43:17;16.00;;;8.63;;
11777;SDS011;5946;51.770;8.548;2022-12-18T04:45:43;14.30;;;8.23;;
11777;SDS011;5946;51.770;8.548;2022-12-18T04:48:09;17.17;;;8.70;;
11777;SDS011;5946;51.770;8.548;2022-12-18T04:50:35;17.53;;;8.40;;
11777;SDS011;5946;51.770;8.548;2022-12-18T04:53:01;17.30;;;8.97;;
11777;SDS011;5946;51.770;8.548;2022-12-18T04:55:27;14.67;;;9.00;;
11777;SDS011;5946;51.770;8.548;2022-12-18T04:57:53;18.13;;;9.30;;
11777;SDS011;5946;51.770;8.548;2022-12-18T05:00:19;15.97;;;8.57;;
11777;SDS011;5946;51.770;8.548;2022-12-18T05:02:46;20.63;;;9.60;;
11777;SDS011;5946;51.770;8.548;2022-12-18T05:05:12;17.80;;;8.63;;
11777;SDS011;5946;51.770;8.548;2022-12-18T05:07:38;18.83;;;9.23;;
11777;SDS011;5946;51.770;8.548;2022-12-18T05:10:04;14.77;;;9.27;;
11777;SDS011;5946;51.770;8.548;2022-12-18T05:12:30;15.20;;;8.50;;
11777;SDS011;5946;51.770;8.548;2022-12-18T05:14:56;18.30;;;9.17;;
11777;SDS011;5946;51.770;8.548;2022-12-18T05:17:22;16.13;;;9.50;;
11777;SDS011;5946;51.770;8.548;2022-12-18T05:19:48;18.83;;;9.93;;
11777;SDS011;5946;51.770;8.548;2022-12-18T05:22:14;16.67;;;9.40;;
11777;SDS011;5946;51.770;8.548;2022-12-18T05:24:40;16.20;;;9.27;;
11777;SDS011;5946;51.770;8.548;2022-12-18T05:27:06;17.53;;;8.73;;
11777;SDS011;5946;51.770;8.548;2022-12-18T05:29:32;16.77;;;9.50;;
11777;SDS011;5946;51.770;8.548;2022-12-18T05:31:58;18.30;;;9.57;;
11777;SDS011;5946;51.770;8.548;2022-12-18T05:34:24;16.07;;;9.73;;
11777;SDS011;5946;51.770;8.548;2022-12-18T05:36:50;20.93;;;9.77;;
11777;SDS011;5946;51.770;8.548;2022-12-18T05:39:16;17.70;;;10.00;;
11777;SDS011;5946;51.770;8.548;2022-12-18T05:41:42;18.03;;;9.97;;
11777;SDS011;5946;51.770;8.548;2022-12-18T05:44:08;16.00;;;9.67;;
11777;SDS011;5946;51.770;8.548;2022-12-18T05:46:34;21.83;;;10.40;;
11777;SDS011;5946;51.770;8.548;2022-12-18T05:49:01;15.27;;;8.73;;
11777;SDS011;5946;51.770;8.548;2022-12-18T05:51:27;17.03;;;9.60;;
11777;SDS011;5946;51.770;8.548;2022-12-18T05:53:53;19.73;;;10.53;;
11777;SDS011;5946;51.770;8.548;2022-12-18T05:56:20;19.20;;;10.40;;
11777;SDS011;5946;51.770;8.548;2022-12-18T05:58:46;21.40;;;10.97;;
11777;SDS011;5946;51.770;8.548;2022-12-18T06:01:15;20.70;;;10.67;;
11777;SDS011;5946;51.770;8.548;2022-12-18T06:03:41;19.37;;;10.80;;
11777;SDS011;5946;51.770;8.548;2022-12-18T06:06:15;20.33;;;10.97;;
11777;SDS011;5946;51.770;8.548;2022-12-18T06:08:41;19.33;;;10.70;;
11777;SDS011;5946;51.770;8.548;2022-12-18T06:11:07;17.53;;;10.73;;
11777;SDS011;5946;51.770;8.548;2022-12-18T06:13:33;17.90;;;10.10;;
11777;SDS011;5946;51.770;8.548;2022-12-18T06:16:01;19.37;;;11.73;;
11777;SDS011;5946;51.770;8.548;2022-12-18T06:18:27;18.57;;;10.90;;
11777;SDS011;5946;51.770;8.548;2022-12-18T06:20:56;19.93;;;10.80;;
11777;SDS011;5946;51.770;8.548;2022-12-18T06:23:22;22.27;;;11.67;;
11777;SDS011;5946;51.770;8.548;2022-12-18T06:25:48;19.90;;;10.83;;
11777;SDS011;5946;51.770;8.548;2022-12-18T06:28:14;17.97;;;10.47;;
11777;SDS011;5946;51.770;8.548;2022-12-18T06:30:43;18.77;;;10.50;;
11777;SDS011;5946;51.770;8.548;2022-12-18T06:33:09;22.77;;;10.50;;
11777;SDS011;5946;51.770;8.548;2022-12-18T06:35:35;19.17;;;11.10;;
11777;SDS011;5946;51.770;8.548;2022-12-18T06:38:01;19.67;;;10.57;;
11777;SDS011;5946;51.770;8.548;2022-12-18T06:40:27;21.27;;;11.33;;
11777;SDS011;5946;51.770;8.548;2022-12-18T06:42:53;19.27;;;11.37;;
11777;SDS011;5946;51.770;8.548;2022-12-18T06:45:19;21.93;;;11.47;;
11777;SDS011;5946;51.770;8.548;2022-12-18T06:47:45;20.97;;;11.27;;
11777;SDS011;5946;51.770;8.548;2022-12-18T06:50:11;18.50;;;10.67;;
11777;SDS011;5946;51.770;8.548;2022-12-18T06:52:38;21.67;;;10.70;;
11777;SDS011;5946;51.770;8.548;2022-12-18T06:55:05;18.07;;;10.17;;
11777;SDS011;5946;51.770;8.548;2022-12-18T06:57:31;19.83;;;10.37;;
11777;SDS011;5946;51.770;8.548;2022-12-18T06:59:57;23.07;;;10.40;;
11777;SDS011;5946;51.770;8.548;2022-12-18T07:02:23;19.33;;;11.17;;
11777;SDS011;5946;51.770;8.548;2022-12-18T07:04:49;18.93;;;10.50;;
11777;SDS011;5946;51.770;8.548;2022-12-18T07:07:15;17.33;;;10.03;;
11777;SDS011;5946;51.770;8.548;2022-12-18T07:09:41;19.43;;;10.53;;
11777;SDS011;5946;51.770;8.548;2022-12-18T07:12:07;19.50;;;10.20;;
11777;SDS011;5946;51.770;8.548;2022-12-18T07:14:33;15.63;;;9.00;;
11777;SDS011;5946;51.770;8.548;2022-12-18T07:16:59;17.10;;;10.17;;
11777;SDS011;5946;51.770;8.548;2022-12-18T07:19:25;19.80;;;10.87;;
11777;SDS011;5946;51.770;8.548;2022-12-18T07:21:51;19.10;;;10.83;;
11777;SDS011;5946;51.770;8.548;2022-12-18T07:24:17;22.07;;;10.73;;
11777;SDS011;5946;51.770;8.548;2022-12-18T07:26:45;20.50;;;10.80;;
11777;SDS011;5946;51.770;8.548;2022-12-18T07:29:11;19.53;;;10.13;;
11777;SDS011;5946;51.770;8.548;2022-12-18T07:31:37;21.90;;;11.67;;
11777;SDS011;5946;51.770;8.548;2022-12-18T07:34:03;17.40;;;10.17;;
11777;SDS011;5946;51.770;8.548;2022-12-18T07:36:29;18.17;;;10.10;;
11777;SDS011;5946;51.770;8.548;2022-12-18T07:38:55;15.23;;;9.83;;
11777;SDS011;5946;51.770;8.548;2022-12-18T07:41:21;18.77;;;9.23;;
11777;SDS011;5946;51.770;8.548;2022-12-18T07:43:47;18.30;;;9.43;;
11777;SDS011;5946;51.770;8.548;2022-12-18T07:46:13;17.37;;;9.40;;
11777;SDS011;5946;51.770;8.548;2022-12-18T07:48:41;17.03;;;9.23;;
11777;SDS011;5946;51.770;8.548;2022-12-18T07:51:07;19.83;;;9.90;;
11777;SDS011;5946;51.770;8.548;2022-12-18T07:53:33;17.97;;;10.37;;
11777;SDS011;5946;51.770;8.548;2022-12-18T07:56:00;22.23;;;11.93;;
11777;SDS011;5946;51.770;8.548;2022-12-18T07:58:27;18.10;;;10.13;;
11777;SDS011;5946;51.770;8.548;2022-12-18T08:00:53;24.93;;;12.93;;
11777;SDS011;5946;51.770;8.548;2022-12-18T08:03:19;71.37;;;32.33;;
11777;SDS011;5946;51.770;8.548;2022-12-18T08:05:45;153.10;;;61.53;;
11777;SDS011;5946;51.770;8.548;2022-12-18T08:08:11;93.63;;;44.33;;
11777;SDS011;5946;51.770;8.548;2022-12-18T08:10:37;151.83;;;61.27;;
11777;SDS011;5946;51.770;8.548;2022-12-18T08:13:04;33.13;;;17.77;;
11777;SDS011;5946;51.770;8.548;2022-12-18T08:15:30;35.17;;;20.13;;
11777;SDS011;5946;51.770;8.548;2022-12-18T08:17:56;34.27;;;20.30;;
11777;SDS011;5946;51.770;8.548;2022-12-18T08:20:22;31.37;;;18.77;;
11777;SDS011;5946;51.770;8.548;2022-12-18T08:22:48;33.00;;;19.80;;
11777;SDS011;5946;51.770;8.548;2022-12-18T08:25:14;40.17;;;21.87;;
11777;SDS011;5946;51.770;8.548;2022-12-18T08:27:40;26.30;;;15.60;;
11777;SDS011;5946;51.770;8.548;2022-12-18T08:30:06;94.00;;;46.23;;
11777;SDS011;5946;51.770;8.548;2022-12-18T08:32:32;67.00;;;35.67;;
11777;SDS011;5946;51.770;8.548;2022-12-18T08:34:58;47.47;;;29.20;;
11777;SDS011;5946;51.770;8.548;2022-12-18T08:37:24;43.83;;;24.70;;
11777;SDS011;5946;51.770;8.548;2022-12-18T08:39:50;39.03;;;24.30;;
11777;SDS011;5946;51.770;8.548;2022-12-18T08:42:16;21.90;;;12.80;;
11777;SDS011;5946;51.770;8.548;2022-12-18T08:45:01;22.10;;;13.67;;
11777;SDS011;5946;51.770;8.548;2022-12-18T08:47:27;18.80;;;12.17;;
11777;SDS011;5946;51.770;8.548;2022-12-18T08:49:53;21.43;;;12.70;;
11777;SDS011;5946;51.770;8.548;2022-12-18T08:52:19;23.73;;;11.90;;
11777;SDS011;5946;51.770;8.548;2022-12-18T08:54:45;21.93;;;12.97;;
11777;SDS011;5946;51.770;8.548;2022-12-18T08:57:11;19.13;;;11.40;;
11777;SDS011;5946;51.770;8.548;2022-12-18T08:59:36;21.43;;;11.83;;
11777;SDS011;5946;51.770;8.548;2022-12-18T09:02:02;18.97;;;11.63;;
11777;SDS011;5946;51.770;8.548;2022-12-18T09:04:28;21.90;;;14.03;;
11777;SDS011;5946;51.770;8.548;2022-12-18T09:06:54;23.57;;;15.30;;
11777;SDS011;5946;51.770;8.548;2022-12-18T09:09:20;18.00;;;11.77;;
11777;SDS011;5946;51.770;8.548;2022-12-18T09:11:46;16.80;;;10.80;;
11777;SDS011;5946;51.770;8.548;2022-12-18T09:14:12;18.17;;;11.07;;
11777;SDS011;5946;51.770;8.548;2022-12-18T09:16:38;16.83;;;11.10;;
11777;SDS011;5946;51.770;8.548;2022-12-18T09:19:04;15.33;;;10.40;;
11777;SDS011;5946;51.770;8.548;2022-12-18T09:21:31;17.73;;;10.70;;
11777;SDS011;5946;51.770;8.548;2022-12-18T09:23:58;16.23;;;10.57;;
11777;SDS011;5946;51.770;8.548;2022-12-18T09:26:24;15.30;;;9.87;;
11777;SDS011;5946;51.770;8.548;2022-12-18T09:28:51;15.03;;;10.23;;
11777;SDS011;5946;51.770;8.548;2022-12-18T09:31:18;16.27;;;10.57;;
11777;SDS011;5946;51.770;8.548;2022-12-18T09:33:44;16.07;;;10.70;;
11777;SDS011;5946;51.770;8.548;2022-12-18T09:36:11;16.05;;;12.10;;
11777;SDS011;5946;51.770;8.548;2022-12-18T09:38:37;18.15;;;14.05;;
11777;SDS011;5946;51.770;8.548;2022-12-18T09:41:18;19.00;;;10.87;;
11777;SDS011;5946;51.770;8.548;2022-12-18T09:43:51;17.53;;;11.47;;
11777;SDS011;5946;51.770;8.548;2022-12-18T09:46:32;17.53;;;10.53;;
11777;SDS011;5946;51.770;8.548;2022-12-18T09:49:00;16.23;;;9.73;;
11777;SDS011;5946;51.770;8.548;2022-12-18T09:51:30;16.93;;;11.37;;
11777;SDS011;5946;51.770;8.548;2022-12-18T09:53:59;15.03;;;9.73;;
11777;SDS011;5946;51.770;8.548;2022-12-18T09:56:28;17.53;;;10.63;;
11777;SDS011;5946;51.770;8.548;2022-12-18T09:58:58;13.97;;;9.23;;
11777;SDS011;5946;51.770;8.548;2022-12-18T10:01:25;14.43;;;8.40;;
11777;SDS011;5946;51.770;8.548;2022-12-18T10:03:52;14.37;;;8.27;;
11777;SDS011;5946;51.770;8.548;2022-12-18T10:06:24;24.83;;;16.20;;
11777;SDS011;5946;51.770;8.548;2022-12-18T10:13:55;15.10;;;9.40;;
11777;SDS011;5946;51.770;8.548;2022-12-18T10:16:28;14.40;;;8.90;;
11777;SDS011;5946;51.770;8.548;2022-12-18T10:21:50;16.47;;;9.00;;
11777;SDS011;5946;51.770;8.548;2022-12-18T10:24:21;13.50;;;8.67;;
11777;SDS011;5946;51.770;8.548;2022-12-18T10:26:50;16.40;;;9.07;;
11777;SDS011;5946;51.770;8.548;2022-12-18T10:29:17;12.77;;;8.20;;
11777;SDS011;5946;51.770;8.548;2022-12-18T10:31:43;15.07;;;9.20;;
11777;SDS011;5946;51.770;8.548;2022-12-18T10:34:10;10.70;;;7.93;;
11777;SDS011;5946;51.770;8.548;2022-12-18T10:36:36;13.20;;;7.77;;
11777;SDS011;5946;51.770;8.548;2022-12-18T10:39:16;11.57;;;7.70;;
11777;SDS011;5946;51.770;8.548;2022-12-18T10:41:42;12.30;;;7.70;;
11777;SDS011;5946;51.770;8.548;2022-12-18T10:44:21;13.00;;;8.00;;
11777;SDS011;5946;51.770;8.548;2022-12-18T10:46:49;12.50;;;7.53;;
11777;SDS011;5946;51.770;8.548;2022-12-18T10:49:19;12.77;;;8.40;;
11777;SDS011;5946;51.770;8.548;2022-12-18T10:51:46;12.43;;;7.90;;
11777;SDS011;5946;51.770;8.548;2022-12-18T10:54:21;13.13;;;7.93;;
11777;SDS011;5946;51.770;8.548;2022-12-18T10:56:47;11.03;;;7.20;;
11777;SDS011;5946;51.770;8.548;2022-12-18T10:59:14;12.67;;;8.07;;
11777;SDS011;5946;51.770;8.548;2022-12-18T11:01:48;11.83;;;7.80;;
11777;SDS011;5946;51.770;8.548;2022-12-18T11:04:21;13.10;;;8.23;;
11777;SDS011;5946;51.770;8.548;2022-12-18T11:07:01;12.47;;;8.43;;
11777;SDS011;5946;51.770;8.548;2022-12-18T11:09:32;12.17;;;7.60;;
11777;SDS011;5946;51.770;8.548;2022-12-18T11:12:00;12.93;;;7.90;;
11777;SDS011;5946;51.770;8.548;2022-12-18T11:14:28;13.17;;;7.60;;
11777;SDS011;5946;51.770;8.548;2022-12-18T11:16:54;11.90;;;7.47;;
11777;SDS011;5946;51.770;8.548;2022-12-18T11:19:25;11.53;;;7.10;;
11777;SDS011;5946;51.770;8.548;2022-12-18T11:21:52;11.57;;;7.30;;
11777;SDS011;5946;51.770;8.548;2022-12-18T11:24:29;14.30;;;6.87;;
11777;SDS011;5946;51.770;8.548;2022-12-18T11:26:57;15.73;;;7.50;;
11777;SDS011;5946;51.770;8.548;2022-12-18T11:29:31;11.07;;;7.57;;
11777;SDS011;5946;51.770;8.548;2022-12-18T11:34:44;12.13;;;7.03;;
11777;SDS011;5946;51.770;8.548;2022-12-18T11:37:11;11.67;;;7.17;;
11777;SDS011;5946;51.770;8.548;2022-12-18T11:39:45;10.80;;;7.37;;
11777;SDS011;5946;51.770;8.548;2022-12-18T11:42:12;10.30;;;6.73;;
11777;SDS011;5946;51.770;8.548;2022-12-18T11:44:53;12.47;;;7.60;;
11777;SDS011;5946;51.770;8.548;2022-12-18T11:47:25;12.47;;;7.53;;
11777;SDS011;5946;51.770;8.548;2022-12-18T11:49:53;12.40;;;6.73;;
11777;SDS011;5946;51.770;8.548;2022-12-18T11:52:26;11.63;;;7.00;;
11777;SDS011;5946;51.770;8.548;2022-12-18T11:54:58;10.67;;;7.23;;
11777;SDS011;5946;51.770;8.548;2022-12-18T11:57:34;11.47;;;6.20;;
11777;SDS011;5946;51.770;8.548;2022-12-18T12:00:12;10.77;;;6.90;;
11777;SDS011;5946;51.770;8.548;2022-12-18T12:06:30;11.33;;;7.13;;
11777;SDS011;5946;51.770;8.548;2022-12-18T12:20:45;11.77;;;6.20;;
11777;SDS011;5946;51.770;8.548;2022-12-18T12:23:37;10.80;;;6.80;;
11777;SDS011;5946;51.770;8.548;2022-12-18T12:26:07;10.13;;;5.97;;
11777;SDS011;5946;51.770;8.548;2022-12-18T12:28:56;9.60;;;6.37;;
11777;SDS011;5946;51.770;8.548;2022-12-18T12:39:18;7.80;;;5.43;;
11777;SDS011;5946;51.770;8.548;2022-12-18T12:41:46;9.87;;;5.73;;
11777;SDS011;5946;51.770;8.548;2022-12-18T12:44:32;8.83;;;5.90;;
11777;SDS011;5946;51.770;8.548;2022-12-18T12:47:01;9.23;;;5.20;;
11777;SDS011;5946;51.770;8.548;2022-12-18T12:49:31;7.70;;;5.53;;
11777;SDS011;5946;51.770;8.548;2022-12-18T12:51:59;7.17;;;5.07;;
11777;SDS011;5946;51.770;8.548;2022-12-18T12:54:26;8.97;;;5.50;;
11777;SDS011;5946;51.770;8.548;2022-12-18T12:59:30;9.00;;;5.83;;
11777;SDS011;5946;51.770;8.548;2022-12-18T13:04:50;14.60;;;7.40;;
11777;SDS011;5946;51.770;8.548;2022-12-18T13:07:20;22.17;;;13.90;;
11777;SDS011;5946;51.770;8.548;2022-12-18T13:10:10;15.97;;;10.90;;
11777;SDS011;5946;51.770;8.548;2022-12-18T13:12:50;57.60;;;39.53;;
11777;SDS011;5946;51.770;8.548;2022-12-18T13:23:18;8.40;;;5.70;;
11777;SDS011;5946;51.770;8.548;2022-12-18T13:25:44;11.83;;;7.20;;
11777;SDS011;5946;51.770;8.548;2022-12-18T13:28:11;11.40;;;8.17;;
11777;SDS011;5946;51.770;8.548;2022-12-18T13:38:22;9.80;;;7.87;;
11777;SDS011;5946;51.770;8.548;2022-12-18T13:48:16;10.10;;;6.97;;
11777;SDS011;5946;51.770;8.548;2022-12-18T13:50:42;7.80;;;5.13;;
11777;SDS011;5946;51.770;8.548;2022-12-18T13:53:15;7.70;;;5.30;;
11777;SDS011;5946;51.770;8.548;2022-12-18T13:55:44;8.97;;;6.00;;
11777;SDS011;5946;51.770;8.548;2022-12-18T13:58:11;11.63;;;7.63;;
11777;SDS011;5946;51.770;8.548;2022-12-18T14:00:41;22.03;;;15.40;;
11777;SDS011;5946;51.770;8.548;2022-12-18T14:03:21;18.33;;;12.20;;
11777;SDS011;5946;51.770;8.548;2022-12-18T14:05:52;23.20;;;16.07;;
11777;SDS011;5946;51.770;8.548;2022-12-18T14:08:18;12.37;;;7.53;;
11777;SDS011;5946;51.770;8.548;2022-12-18T14:10:45;10.93;;;6.73;;
11777;SDS011;5946;51.770;8.548;2022-12-18T14:13:15;10.90;;;7.47;;
11777;SDS011;5946;51.770;8.548;2022-12-18T14:15:44;10.07;;;6.53;;
11777;SDS011;5946;51.770;8.548;2022-12-18T14:18:25;9.33;;;6.00;;
11777;SDS011;5946;51.770;8.548;2022-12-18T14:20:53;9.57;;;7.07;;
11777;SDS011;5946;51.770;8.548;2022-12-18T14:23:25;9.30;;;6.40;;
11777;SDS011;5946;51.770;8.548;2022-12-18T14:25:51;9.80;;;6.90;;
11777;SDS011;5946;51.770;8.548;2022-12-18T14:28:17;13.00;;;8.60;;
11777;SDS011;5946;51.770;8.548;2022-12-18T14:30:44;12.03;;;8.17;;
11777;SDS011;5946;51.770;8.548;2022-12-18T14:33:14;12.20;;;8.17;;
11777;SDS011;5946;51.770;8.548;2022-12-18T14:35:41;15.30;;;8.67;;
11777;SDS011;5946;51.770;8.548;2022-12-18T14:40:47;19.33;;;11.20;;
11777;SDS011;5946;51.770;8.548;2022-12-18T14:43:13;15.70;;;9.43;;
11777;SDS011;5946;51.770;8.548;2022-12-18T14:45:40;15.60;;;10.07;;
11777;SDS011;5946;51.770;8.548;2022-12-18T14:48:17;16.77;;;9.03;;
11777;SDS011;5946;51.770;8.548;2022-12-18T14:50:44;13.67;;;9.40;;
11777;SDS011;5946;51.770;8.548;2022-12-18T14:53:20;33.73;;;17.67;;
11777;SDS011;5946;51.770;8.548;2022-12-18T14:55:48;20.33;;;13.23;;
11777;SDS011;5946;51.770;8.548;2022-12-18T14:58:15;15.03;;;8.97;;
11777;SDS011;5946;51.770;8.548;2022-12-18T15:00:42;14.63;;;8.97;;
11777;SDS011;5946;51.770;8.548;2022-12-18T15:03:08;13.47;;;8.73;;
11777;SDS011;5946;51.770;8.548;2022-12-18T15:05:35;12.33;;;8.13;;
11777;SDS011;5946;51.770;8.548;2022-12-18T15:08:01;14.23;;;8.67;;
11777;SDS011;5946;51.770;8.548;2022-12-18T15:10:28;19.57;;;10.70;;
11777;SDS011;5946;51.770;8.548;2022-12-18T15:20:30;16.77;;;10.10;;
11777;SDS011;5946;51.770;8.548;2022-12-18T15:22:57;26.63;;;15.87;;
11777;SDS011;5946;51.770;8.548;2022-12-18T15:27:52;18.23;;;10.70;;
11777;SDS011;5946;51.770;8.548;2022-12-18T15:30:19;18.03;;;10.57;;
11777;SDS011;5946;51.770;8.548;2022-12-18T15:32:46;20.07;;;12.07;;
11777;SDS011;5946;51.770;8.548;2022-12-18T15:37:38;12.60;;;7.90;;
11777;SDS011;5946;51.770;8.548;2022-12-18T15:40:04;16.43;;;9.67;;
11777;SDS011;5946;51.770;8.548;2022-12-18T15:42:30;16.37;;;9.53;;
11777;SDS011;5946;51.770;8.548;2022-12-18T15:45:15;15.00;;;9.00;;
11777;SDS011;5946;51.770;8.548;2022-12-18T15:47:41;15.90;;;8.70;;
11777;SDS011;5946;51.770;8.548;2022-12-18T15:50:07;15.73;;;8.90;;
11777;SDS011;5946;51.770;8.548;2022-12-18T15:52:35;19.03;;;9.60;;
11777;SDS011;5946;51.770;8.548;2022-12-18T15:55:05;15.23;;;10.30;;
11777;SDS011;5946;51.770;8.548;2022-12-18T15:57:50;15.57;;;8.87;;
11777;SDS011;5946;51.770;8.548;2022-12-18T16:00:16;24.30;;;13.23;;
11777;SDS011;5946;51.770;8.548;2022-12-18T16:02:42;19.00;;;11.10;;
11777;SDS011;5946;51.770;8.548;2022-12-18T16:05:11;18.97;;;11.03;;
11777;SDS011;5946;51.770;8.548;2022-12-18T16:07:39;17.60;;;10.67;;
11777;SDS011;5946;51.770;8.548;2022-12-18T16:10:05;20.90;;;11.67;;
11777;SDS011;5946;51.770;8.548;2022-12-18T16:12:31;17.30;;;11.27;;
11777;SDS011;5946;51.770;8.548;2022-12-18T16:14:57;21.33;;;10.97;;
11777;SDS011;5946;51.770;8.548;2022-12-18T16:17:23;18.73;;;11.47;;
11777;SDS011;5946;51.770;8.548;2022-12-18T16:19:49;23.07;;;12.60;;
11777;SDS011;5946;51.770;8.548;2022-12-18T16:22:20;21.13;;;12.87;;
11777;SDS011;5946;51.770;8.548;2022-12-18T16:24:47;20.13;;;12.40;;
11777;SDS011;5946;51.770;8.548;2022-12-18T16:27:13;22.43;;;13.03;;
11777;SDS011;5946;51.770;8.548;2022-12-18T16:29:39;23.00;;;13.40;;
11777;SDS011;5946;51.770;8.548;2022-12-18T16:32:05;24.70;;;15.10;;